Airfield :
LOGIN :

Register | Disclaimer

   EN    FR    IT 

 










Legend :    VFR   Marginal VFR   IFR   Intensive IFR   Very Intensive IFR
Visi :
Ceiling :
>= 8 km
>= 3000ft
5 to 8 km
1000 to 3000 ft
1500m to 5 km
500 to 1000 ft
800 to 1500m
200 to 500 ft
< 800m
< 200 ft
Symbols :   Thunderstorms  Fog  Heavy snow  Heavy precipitations  Wind > 20 kt
SIGMETs :     Misc.  Thunderstorms  Icing  Turbulence  Mountain Waves  Volcanic Ashes







- Airport Elevation : 249 ft
- IATA code : QZD


LHUD - Szeged Glider

CURRENT METAR :
  • 192245Z 01009KT 9999 -RA NSC 15/14 Q1004 RETS

EXPIRED METARs :
  • 192145Z 33005KT 9999 TSRA FEW003 OVC060CB 14/14 Q1005

TAF N/A
No reported NOTAMs for that airfield.
1 SIGMET reported for the Budapest FIR (LHCC) :
 
Embedded thunderstorms
LHCC SIGMET 08 VALID 192300/200130 LHBM
LHCC BUDAPEST FIR EMBD TS OBS WI N4611 E01938 - N4625 E01645 - N4746 E01743 - N4836 E02035 - N4741 E02209 - N4611 E02110 - N4611 E01938 TOP FL400 MOV NNW 50KT WKN=



MET'MAP, your aeronautical weather chart ! - Copyright ORBIFLY December 2007 - Disclaimer

ORBIFLY MET'MAP TEAM :

Programming & Development : Alexandra Zaïnal
Concept & Development : Baudouin d'Aumeries
Co-Development & Prog : Marc-Olivier Méhu
Technical & hardware support : Manuel Goepfert

Contact : metmap@orbifly.com




SOURCES & CREDITS :

   NOAA